CheckWX is a tool to help pilots better visualize weather data.  It is not intended as a substitute for an official pre-flight weather briefing.

22:08:01 UTC

KENW TAF
Kenosha Regional Airport
Kenosha, Wisconsin, USA
KENW 192042Z 1921/2018 18009KT P6SM SCT060 BKN250 FM200000 VRB03KT P6SM VCSH OVC060 TEMPO 2001/2005 -SHRA BKN015 FM200800 VRB04KT P6SM SCT003 BKN023 FM201000 VRB04KT 6SM BR FEW005 SCT015 FM201600 VRB04KT P6SM FEW180

Oct-19@
21:00 UTC

Oct-19 @ 21:00 UTC

Oct-20@
00:00 UTC

Oct-20 @ 00:00 UTC

KENW 192042Z 1921/2018 18009KT P6SM SCT060 BKN250
Wind
  • 180° at 9 KTS
Cloud Levels
  • Scattered at 6,000' AGL
  • Broken at 25,000' AGL

Oct-20@
00:00 UTC

Oct-20 @ 00:00 UTC

Oct-20@
08:00 UTC

Oct-20 @ 08:00 UTC

FM200000 VRB03KT P6SM VCSH OVC060

From

From Standard forecast or significant change

Wind
  • Variable at 3 KTS
Cloud Levels
  • Overcast at 6,000' AGL

Oct-20@
01:00 UTC

Oct-20 @ 01:00 UTC

Oct-20@
05:00 UTC

Oct-20 @ 05:00 UTC

TEMPO 2001/2005 -SHRA BKN015

Temporary

Temporary Changes expected for less than half the time period

Conditions
Light Rain
Cloud Levels
  • Broken at 1,500' AGL

Oct-20@
08:00 UTC

Oct-20 @ 08:00 UTC

Oct-20@
10:00 UTC

Oct-20 @ 10:00 UTC

FM200800 VRB04KT P6SM SCT003 BKN023

From

From Standard forecast or significant change

Wind
  • Variable at 4 KTS
Cloud Levels
  • Scattered at 300' AGL
  • Broken at 2,300' AGL

Oct-20@
10:00 UTC

Oct-20 @ 10:00 UTC

Oct-20@
16:00 UTC

Oct-20 @ 16:00 UTC

FM201000 VRB04KT 6SM BR FEW005 SCT015

From

From Standard forecast or significant change

Wind
  • Variable at 4 KTS
Conditions
Mist
Cloud Levels
  • Few at 500' AGL
  • Scattered at 1,500' AGL

Oct-20@
16:00 UTC

Oct-20 @ 16:00 UTC

Oct-20@
18:00 UTC

Oct-20 @ 18:00 UTC

FM201600 VRB04KT P6SM FEW180

From

From Standard forecast or significant change

Wind
  • Variable at 4 KTS
Cloud Levels
  • Few at 18,000' AGL